Slide Mountain Weather observations

Data are for 10 minute period ending at time listed.
 Day   Time   Solar   Ave.   Ave.  Ave.  Vector  Max.    Baro.  
  of    of     Rad.   Air    Rel.  Wind   Wind   Wind   Press.  
Year   Day            Temp.  Hum.  Speed  Dir.   Gust           
2017   (PST)  Kw/m2    F      %     mph   deg.    mph     mb.   
-----------------------------------------------------------------
 292   13:30   0.52   40.6    72   37.8   237     58.1   1102.5 
 292   13:40   0.51   40.6    72   38.1   237     65.5   1102.5 
 292   13:50   0.49   40.7    71   36.6   234     57.7   1102.5 
 292   14:00   0.48   41.0    70   37.3   235     52.1   1102.5 
 292   14:10   0.46   41.0    70   34.6   232     49.6   1102.5 
 292   14:20   0.43   40.8    70   37.6   228     53.0   1102.5 
 292   14:30   0.41   40.0    72   40.8   231     63.1   1102.5 
 292   14:40   0.40   39.9    72   42.2   232     58.8   1102.5 
 292   14:50   0.36   39.4    73   43.2   235     58.4   1102.5 
 292   15:00   0.35   39.3    73   44.8   235     60.5   1102.5 
 292   15:10   0.33   38.9    74   45.6   236     63.4   1102.5 
 292   15:20   0.28   38.8    75   45.1   236     71.7   1102.5 
 292   15:30   0.07   36.9    81   44.9   233     67.8   1102.5 
 292   15:40   0.03   36.2    85   38.9   230     60.8   1102.5 
 292   15:50   0.03   35.9    87   42.0   229     59.8   1102.5 
 292   16:00   0.03   35.5    88   40.9   224     55.0   1102.5 
 292   16:10   0.04   35.3    90   41.2   228     60.0   1102.4 
 292   16:20   0.05   35.3    91   41.3   227     57.6   1102.4 
 292   16:30   0.04   35.3    92   39.0   224     69.9   1102.4 
 292   16:40   0.04   35.2    91   40.1   227     66.6   1102.4 
 292   16:50   0.04   35.2    90   37.9   231     72.8   1102.4 
 292   17:00   0.03   35.0    92   38.0   229     69.9   1102.4 
 292   17:10   0.01   34.5    94   40.6   230     61.9   1102.5 
 292   17:20   0.01   34.3    94   40.9   236     62.2   1102.5 
 292   17:30   0.00   34.0    95   46.4   232     68.1   1102.5 
 292   17:40   0.00   34.0    95   48.5   235     70.6   1102.5 
 292   17:50   0.00   33.9    96   48.4   232     72.0   1102.5 
 292   18:00   0.00   33.8    96   49.8   227     68.5   1102.4 
 292   18:10   0.00   33.8    97   42.9   227     65.6   1102.4 
 292   18:20   0.00   33.7    97   41.8   228     66.1   1102.4 
 292   18:30   0.00   33.7    97   41.4   230     63.6   1102.4 
 292   18:40   0.00   33.7    97   42.3   230     68.7   1102.4 
 292   18:50   0.00   33.8    98   42.9   226     63.3   1102.4 
 292   19:00   0.00   33.9    98   45.9   226     70.6   1102.4 
 292   19:10   0.00   33.9    99   54.1   230     83.6   1102.4 
 292   19:20   0.00   33.7    99   58.1   233     83.6   1102.4 
 292   19:30   0.00   33.4   100   60.6   232     84.6   1102.4 
 292   19:40   0.00   33.1   100   64.4   233     94.1   1102.4 
 292   19:50   0.00   32.8   100   64.3   229     88.7   1102.4 
 292   20:00   0.00   32.6   100   63.5   232     92.2   1102.4 
 292   20:10   0.00   32.5   100   62.6   231     84.3   1102.4 
 292   20:20   0.00   32.4   100   62.4   233     91.1   1102.4 
 292   20:30   0.00   32.3   100   62.4   231     81.7   1102.4 
 292   20:40   0.00   32.2   100   58.5   232     81.1   1102.4 
 292   20:50   0.00   32.4   100   55.4   228     79.3   1102.5 
 292   21:00   0.00   32.3   100   61.1   231     97.9   1102.5 
 292   21:10   0.00   32.1   100   67.1   229     98.6   1102.5 
 292   21:20   0.00   32.0   100   67.5   231     95.8   1102.5 
 292   21:30   0.00   31.7   100   70.3   235    103.4   1102.5 
 292   21:40   0.00   31.6   100   68.6   233     93.3   1102.5 
 292   21:50   0.00   31.6   100   70.8   232    101.3   1102.5 
 292   22:00   0.00   31.5   100   68.6   233    105.2   1102.5 
 292   22:10   0.00   31.4   100   63.0   232     97.0   1102.4 
 292   22:20   0.00   31.4   100   57.7   228     83.9   1102.4 
 292   22:30   0.00   31.5   100   51.5   228     78.4   1102.4 
 292   22:40   0.00   31.4   100   49.6   226     70.4   1102.4 
 292   22:50   0.00   31.2   100   49.5   224     66.6   1102.4 
 292   23:00   0.00   31.1   100   49.6   229     74.1   1102.4 
 292   23:10   0.00   30.9   100   52.0   226     68.2   1102.4 
 292   23:20   0.00   30.9   100   50.6   228     79.1   1102.4 
 292   23:30   0.00   31.0   100   49.9   226     65.7   1102.4 
 292   23:40   0.00   30.9   100   44.4   223     61.9   1102.4 
 292   23:50   0.00   31.0   100   41.7   224     58.1   1102.4 
 293    0:00   0.00   31.0   100   36.3   222     54.6   1102.4 
 293    0:10   0.00   30.9   100   30.9   204     54.5   1102.4 
 293    0:20   0.00   30.5   100   30.8   205     48.7   1102.4 
 293    0:30   0.00   30.6   100   27.7   194     49.2   1102.4 
 293    0:40   0.00   30.7   100   31.1   196     52.8   1102.4 
 293    0:50   0.00   30.8   100   32.6   201     65.2   1102.4 
 293    1:00   0.00   30.6   100   33.3   228     51.2   1102.4 
 293    1:10   0.00   29.7   100   37.2   226     51.6   1102.4 
 293    1:20   0.00   29.4   100   33.7   232     59.2   1102.4 
 293    1:30   0.00   29.1   100   34.3   235     52.7   1102.4 
 293    1:40   0.00   28.7   100   36.5   242     59.0   1102.4 
 293    1:50   0.00   27.6   100   27.8   254     48.4   1102.4 
 293    2:00   0.00   26.6    99   19.4   263     36.3   1102.4 
 293    2:10   0.00   25.5    99   23.1   259     41.3   1102.4 
 293    2:20   0.00   24.8    98   22.4   256     36.9   1102.4 
 293    2:30   0.00   24.3    98   25.1   254     35.7   1102.4 
 293    2:40   0.00   23.8    98   17.5   255     28.5   1102.4 
 293    2:50   0.00   23.5    98    9.6   273     21.1   1102.4 
 293    3:00   0.00   22.9    97   11.5   264     26.1   1102.4 
 293    3:10   0.00   22.2    97   18.2   249     32.5   1102.4 
 293    3:20   0.00   21.7    97   21.1   251     35.7   1102.4 
 293    3:30   0.00   21.3    97   22.2   255     41.3   1102.4 
 293    3:40   0.00   19.9    96   28.5   262     43.8   1102.4 
 293    3:50   0.00   19.2    96   31.5   265     47.8   1102.4 
 293    4:00   0.00   19.3    96   36.9   258     60.0   1102.4 
 293    4:10   0.00   19.3    96   40.3   269     61.7   1102.4 
 293    4:20   0.00   19.0    96   45.4   262     65.8   1102.4 
 293    4:30   0.00   18.9    96   44.1   259     58.5   1102.4 
 293    4:40   0.00   18.8    96   42.5   258     67.5   1102.4 
 293    4:50   0.00   18.9    96   34.4   255     50.5   1102.4 
 293    5:00   0.00   19.2    96   26.0   261     37.8   1102.4 
 293    5:10   0.00   19.3    96   24.2   254     35.8   1102.4 
 293    5:20   0.00   19.1    96   20.6   255     31.4   1102.4 
 293    5:30   0.00   18.8    96   22.2   256     33.5   1102.4 
 293    5:40   0.00   18.3    95   21.3   255     32.1   1102.4 
 293    5:50   0.00   18.1    95   15.9   257     29.6   1102.4 
 293    6:00   0.00   17.8    95   14.0   247     24.2   1102.4 
 293    6:10   0.00   17.7    95   15.1   253     25.6   1102.4 
 293    6:20   0.00   17.6    95   12.7   252     21.4   1102.4 
 293    6:30   0.01   17.5    95   14.5   248     27.4   1102.4 
 293    6:40   0.02   17.6    95   13.6   262     25.9   1102.4 
 293    6:50   0.06   17.6    95    8.3   283     17.4   1102.4 
 293    7:00   0.04   17.6    94    7.7   303     16.7   1102.4 
 293    7:10   0.08   17.3    94    7.6   321     15.3   1102.4 
 293    7:20   0.15   17.5    94    6.2   324     16.0   1102.4 
 293    7:30   0.17   18.2    95    3.1   251     12.9   1102.4 
 293    7:40   0.19   18.9    95    1.6   209      6.9   1102.4 
 293    7:50   0.22   20.0    96    0.8   205      3.0   1102.4 
 293    8:00   0.24   20.5    96    2.7   250      6.9   1102.4 
 293    8:10   0.27   19.9    95    6.8   251     13.6   1102.4 
 293    8:20   0.29   19.6    95    4.5   264      9.1   1102.4 
 293    8:30   0.32   20.2    96    4.7   284     10.9   1102.4 
 293    8:40   0.34   20.5    96    2.7   343      5.9   1102.4 
 293    8:50   0.33   21.2    96    0.8    79      3.5   1102.5 
 293    9:00   0.39   21.6    96    2.0    78      5.8   1102.4 
 293    9:10   0.41   21.3    96    2.9   307      6.8   1102.4 
 293    9:20   0.43   21.8    96    0.9   193      5.1   1102.5 
 293    9:30   0.46   22.8    96    0.2    92      1.5   1102.4 
 293    9:40   0.48   23.3    96    1.7   216      5.5   1102.5 
 293    9:50   0.50   22.9    96    4.4   249     12.8   1102.5 
 293   10:00   0.53   22.7    96    1.2   236      6.1   1102.5 
 293   10:10   0.54   24.1    97    2.2   230      6.2   1102.4 
 293   10:20   0.55   24.3    97    1.9   236      5.8   1102.4 
 293   10:30   0.55   24.9    97    2.2   179      5.9   1102.4 
 293   10:40   0.56   25.0    97    2.0   272      9.7   1102.5 
 293   10:50   0.56   23.9    96    5.4   270     11.2   1102.5 
 293   11:00   0.59   23.6    97    4.6   282     10.8   1102.5 
 293   11:10   0.59   23.1    96    5.5   277     13.9   1102.5 
 293   11:20   0.59   22.8    96    5.5   333     12.2   1102.5 
 293   11:30   0.60   23.5    96    2.7    14      7.7   1102.4 
 293   11:40   0.60   23.3    96    7.4   269     18.2   1102.4 
 293   11:50   0.60   22.6    96    5.4   258     10.6   1102.4 
 293   12:00   0.60   23.4    97    5.0   263     14.6   1102.4 
 293   12:10   0.60   23.5    97    6.9   258     13.9   1102.4 
 293   12:20   0.60   23.1    96    5.4   262     12.2   1102.5 
 293   12:30   0.60   23.4    97    3.3   255      9.2   1102.5 
 293   12:40   0.60   23.8    97    3.6   259      8.7   1102.5 
 293   12:50   0.59   23.7    97    7.5   257     15.2   1102.5 
 293   13:00   0.59   23.7    97    8.1   255     15.8   1102.5 
 293   13:10   0.53   23.6    97   10.9   260     21.8   1102.5 
 293   13:20   0.53   23.2    97   10.9   259     21.8   1102.5 

Return to Slide Mountain graphs page.


Western Regional Climate Center,wrcc@dri.edu